Terminal Aerodrome Forecast
Issued by NWS Melbourne, FL

Home | Current Version | Previous Version | Text Only | Print | Product List | Glossary On
Versions: 1 2 3 4 5 6 7 8 9 10 11 12 13 14 15
000
FTUS42 KMLB 210534
TAFVRB
TAF
KVRB 210534Z 2106/2206 13004KT P6SM BKN150 OVC250
     FM210800 VRB03KT 4SM BR SCT012
     FM211400 26005KT P6SM SCT015 BKN100
     FM211800 06008KT P6SM VCSH SCT030 BKN050
     FM220000 07007KT P6SM SCT030 BKN150=

USA.gov is the U.S. government's official web portal to all federal, state and local government web resources and services.